AGROMETEOROLOŠKI PORTAL

vinorodna pokrajina

Temelj dobrega kmetovanja

Pregled podatkov za lokacijo Lesce, meteorološka postaja 105

Pregled senzorjev na lokaciji

ID Ime Zadnja
vrednost
Datum in čas
meritve
(lokalni čas)
Tip
senzorja
6033 Zračni tlak (hPa) 952 hPa 25.9.2022 23:00 ARSO
2346 Sončno sevanje (W/m2) 1 W/m2 25.9.2022 23:00 ARSO
2352 Padavine (mm) 0 mm 25.9.2022 23:00 ARSO
2340 Relativna zračna vlaga (2 m) (% RH) 96 % RH 25.9.2022 23:00 ARSO
2343 Temperatura tal (5 cm) (°C) 14,3 °C 25.9.2022 23:00 ARSO
2344 Temperatura tal (10 cm) (°C) 14,4 °C 25.9.2022 23:00 ARSO
2345 Temperatura tal (30 cm) (°C) 14,8 °C 25.9.2022 23:00 ARSO
2337 Temperatura (2 m) (°C) 11,6 °C 25.9.2022 23:00 ARSO
2348 Smer vetra (2 m) (°) 272 ° 25.9.2022 23:00 ARSO
2347 Hitrost vetra (2 m) (km/h) 4 km/h 25.9.2022 23:00 ARSO

Pregled podatkov zadnjih 24 ur

Zap.
št.
Datum in čas
(lokalni čas)
Lesce
Zračni
tlak
Sončno
sevanje
Padavine Relativna
zračna
vlaga
(2
m)
Temperatura
tal
(5
cm)
Temperatura
tal
(10
cm)
Temperatura
tal
(30
cm)
Temperatura
(2
m)
Smer
vetra
(2
m)
Hitrost
vetra
(2
m)
1 25.9.2022 23:00 951,5 1 0 96 14,3 14,4 14,8 11,6 272 4
2 25.9.2022 22:30 951,5 1 0 96 14,3 14,4 14,7 11,6 23 1
3 25.9.2022 22:00 951,7 1 0 95 14,3 14,4 14,7 11,6 113 2
4 25.9.2022 21:30 951,9 1 0 95 14,4 14,5 14,7 11,6 127 2
5 25.9.2022 21:00 952 1 0 94 14,4 14,5 14,7 11,6 123 2
6 25.9.2022 20:30 952 1 0,1 95 14,4 14,5 14,7 11,6 103 3
7 25.9.2022 20:00 951,8 1 0 95 14,4 14,5 14,7 11,6 106 3
8 25.9.2022 19:30 951,8 1 0,4 95 14,5 14,5 14,7 11,6 119 6
9 25.9.2022 19:00 951,9 4 0 95 14,4 14,5 14,6 11,8 122 6
10 25.9.2022 18:30 951,8 13 0 94 14,4 14,5 14,6 11,9 115 4
11 25.9.2022 18:00 951,8 34 0 94 14,4 14,5 14,6 12 114 6
12 25.9.2022 17:30 952,1 38 0 93 14,4 14,5 14,6 12,1 103 5
13 25.9.2022 17:00 952,2 59 0 93 14,4 14,4 14,6 12,2 121 6
14 25.9.2022 16:30 952,5 81 0 92 14,3 14,4 14,6 12,4 133 6
15 25.9.2022 16:00 952,7 115 0 91 14,2 14,3 14,5 12,6 140 5
16 25.9.2022 15:30 952,8 156 0,2 90 14,1 14,2 14,5 12,5 139 1
17 25.9.2022 15:00 953,1 161 0 90 14 14,1 14,5 12,4 126 2
18 25.9.2022 14:30 953,3 161 0,1 91 13,9 14 14,5 12,2 116 2
19 25.9.2022 14:00 953,3 165 0,2 91 13,8 13,9 14,5 12,1 137 3
20 25.9.2022 13:30 953,4 195 0,3 91 13,7 13,8 14,5 12,1 142 1
21 25.9.2022 13:00 953,6 186 0,5 92 13,7 13,8 14,6 11,7 88 0
22 25.9.2022 12:30 953,6 152 1,2 94 13,7 13,8 14,6 11,3 198 2
23 25.9.2022 12:00 953,6 101 2,4 95 13,7 13,8 14,6 11 130 3
24 25.9.2022 11:30 953,9 44 1,5 95 13,7 13,8 14,6 10,9 134 8
25 25.9.2022 11:00 954,1 86 1,7 94 13,6 13,8 14,6 11,4 135 7
26 25.9.2022 10:30 953,9 97 2,7 95 13,7 13,8 14,7 11,3 123 4
27 25.9.2022 10:00 953,8 38 2,7 95 13,7 13,8 14,7 11,4 137 3
28 25.9.2022 09:30 953,6 23 3,2 96 13,7 13,9 14,7 11,3 113 4
29 25.9.2022 09:00 953,4 25 2 96 13,8 13,9 14,7 11,4 208 1
30 25.9.2022 08:30 953,4 27 2,6 96 13,9 13,9 14,7 11,3 26 2
31 25.9.2022 08:00 953,7 7 1,6 96 13,9 14 14,7 11,2 265 2
32 25.9.2022 07:30 953,8 5 1,6 96 13,9 14 14,7 11,2 343 0
33 25.9.2022 07:00 954,1 2 0,5 96 13,9 14 14,7 11,1 0 0
34 25.9.2022 06:30 954,2 1 0,5 96 13,9 14 14,7 11 297 0
35 25.9.2022 06:00 954,1 1 0,5 96 13,9 14 14,7 11,1 248 3
36 25.9.2022 05:30 954,4 1 1,2 95 13,9 14 14,7 11,1 1 1
37 25.9.2022 05:00 954,5 1 0,2 94 14 14,1 14,7 11,1 0 0
38 25.9.2022 04:30 954,8 1 0,5 94 14 14,1 14,7 11 0 0
39 25.9.2022 04:00 955,1 1 0,5 95 14 14,1 14,7 11,1 261 1
40 25.9.2022 03:30 955,2 1 0,3 94 13,9 14 14,7 11,3 273 0
41 25.9.2022 03:00 955,5 1 0,3 94 13,9 14 14,7 11,5 0 0
42 25.9.2022 02:30 955,6 1 0,1 94 14 14,1 14,7 11,4 183 0
43 25.9.2022 02:00 955,9 1 0 92 14 14,1 14,7 11,5 144 1
44 25.9.2022 01:30 955,9 1 0 90 14 14,1 14,7 11,7 178 2
45 25.9.2022 01:00 956 0 0 87 14 14,1 14,8 11,5 136 2